NN5DX-12 Weather Reports


Display with metric or nautical units.
time (UTC)temp
F
wind
direction
speed
MPH
gust
MPH
rain 1hr
in
rain 24hr
in
rain mn
in
humidity
%
barometer
mb
20210917230016 63 113 2.0 5.0 0.00 0.00 0.00 43 1033.8
20210917225017 63 0.0 2.0 0.00 0.00 0.00 44 1033.7
20210917224017 62 90 2.0 5.0 0.00 0.00 0.00 45 1033.6
20210917223016 62 113 2.0 4.0 0.00 0.00 0.00 47 1033.3
20210917222016 61 0.0 1.0 0.00 0.00 0.00 49 1033.4
20210917221016 60 0.0 1.0 0.00 0.00 0.00 49 1033.3
20210917220017 60 0.0 1.0 0.00 0.00 0.00 48 1033.1
20210917215017 61 315 1.0 3.0 0.00 0.00 0.00 47 1033.2
20210917214016 62 0.0 1.0 0.00 0.00 0.00 45 1033.3
20210917213017 63 315 1.0 4.0 0.00 0.00 0.00 43 1033.2
20210917212016 63 0.0 2.0 0.00 0.00 0.00 44 1033.2
20210917211016 63 23 2.0 6.0 0.00 0.00 0.00 44 1033.1
20210917210016 63 90 2.0 5.0 0.00 0.00 0.00 44 1033.1
20210917205016 62 135 1.0 5.0 0.00 0.00 0.00 46 1033.2
20210917204018 62 90 3.0 6.0 0.00 0.00 0.00 45 1033.1
20210917203016 63 135 1.0 4.0 0.00 0.00 0.00 43 1033.0
20210917202016 64 90 3.0 7.0 0.00 0.00 0.00 43 1033.5
20210917201020 64 90 2.0 5.0 0.00 0.00 0.00 42 1033.4
20210917200017 64 68 1.0 10.0 0.00 0.00 0.00 42 1033.3
20210917195016 64 45 2.0 6.0 0.00 0.00 0.00 43 1033.4
20210917194016 63 113 1.0 6.0 0.00 0.00 0.00 45 1033.0
20210917193016 64 90 1.0 4.0 0.00 0.00 0.00 43 1033.5
20210917192016 63 45 1.0 5.0 0.00 0.00 0.00 43 1033.0
20210917191016 64 90 2.0 8.0 0.00 0.00 0.00 42 1033.4
20210917190016 62 315 2.0 6.0 0.00 0.00 0.00 45 1032.9
20210917185016 62 45 2.0 5.0 0.00 0.00 0.00 44 1032.9
20210917184016 63 90 3.0 7.0 0.00 0.00 0.00 44 1032.9
20210917183016 63 90 2.0 6.0 0.00 0.00 0.00 44 1033.0
20210917182017 62 68 2.0 5.0 0.00 0.00 0.00 47 1033.0
20210917181016 61 90 2.0 7.0 0.00 0.00 0.00 48 1032.3
20210917180016 61 135 2.0 6.0 0.00 0.00 0.00 48 1032.5
20210917175016 61 113 2.0 5.0 0.00 0.00 0.00 49 1032.7
20210917174016 59 135 2.0 5.0 0.00 0.00 0.00 51 1032.1
20210917173016 59 135 2.0 6.0 0.00 0.00 0.00 52 1032.2
20210917172016 57 90 1.0 4.0 0.00 0.00 0.00 54 1031.7
20210917171016 57 135 3.0 5.0 0.00 0.00 0.00 54 1031.7
20210917170016 56 135 1.0 3.0 0.00 0.00 0.00 55 1031.7
20210917165016 55 135 2.0 5.0 0.00 0.00 0.00 58 1031.2
20210917164016 54 90 2.0 5.0 0.00 0.00 0.00 60 1031.3
20210917163016 53 135 1.0 3.0 0.00 0.00 0.00 60 1030.6
20210917162016 51 135 1.0 3.0 0.00 0.00 0.00 64 1030.0
20210917161016 49 90 1.0 4.0 0.00 0.00 0.00 67 1029.4
20210917160016 49 90 2.0 5.0 0.00 0.00 0.00 67 1029.3
20210917155016 47 90 2.0 6.0 0.00 0.00 0.00 71 1028.8
20210917154016 47 90 1.0 4.0 0.00 0.00 0.00 73 1028.7
20210917153016 46 113 1.0 4.0 0.00 0.00 0.00 74 1028.6
20210917152016 44 113 1.0 3.0 0.00 0.00 0.00 77 1027.9
20210917151015 42 0.0 1.0 0.00 0.00 0.00 85 1027.3
20210917150016 40 135 1.0 2.0 0.00 0.00 0.00 86 1026.8
20210917145016 40 0.0 1.0 0.00 0.00 0.00 87 1026.7
20210917144016 39 0.0 1.0 0.00 0.00 0.00 88 1026.1
20210917143016 39 0.0 2.0 0.00 0.00 0.00 89 1025.9
20210917142015 39 0.0 1.0 0.00 0.00 0.00 88 1025.8
20210917141015 38 0.0 1.0 0.00 0.00 0.00 90 1025.8
20210917140016 38 0.0 1.0 0.00 0.00 0.00 90 1025.6
20210917135016 37 0.0 0.0 0.00 0.00 0.00 91 1025.0
20210917134016 37 0.0 0.0 0.00 0.00 0.00 92 1025.0
20210917133016 36 0.0 0.0 0.00 0.00 0.00 92 1024.7
20210917132015 36 0.0 0.0 0.00 0.00 0.00 91 1024.6
20210917131015 36 0.0 0.0 0.00 0.00 0.00 91 1024.5
20210917130016 36 0.0 0.0 0.00 0.00 0.00 90 1024.3
20210917125016 36 0.0 0.0 0.00 0.00 0.00 89 1024.1
20210917124016 37 0.0 0.0 0.00 0.00 0.00 88 1023.9
20210917123016 37 0.0 0.0 0.00 0.00 0.00 88 1023.7
20210917122016 38 0.0 0.0 0.00 0.00 0.00 87 1024.0
20210917121015 38 0.0 0.0 0.00 0.00 0.00 87 1023.7
20210917120016 39 0.0 0.0 0.00 0.00 0.00 87 1023.7
20210917115015 39 0.0 0.0 0.00 0.00 0.00 86 1023.6
20210917114015 40 0.0 0.0 0.00 0.00 0.00 85 1023.4
20210917113016 40 0.0 0.0 0.00 0.00 0.00 83 1023.8
20210917112015 41 0.0 0.0 0.00 0.00 0.00 83 1023.9
20210917111016 41 0.0 0.0 0.00 0.00 0.00 84 1023.6
20210917110015 41 0.0 0.0 0.00 0.00 0.00 83 1023.6
20210917105015 42 0.0 0.0 0.00 0.00 0.00 82 1023.4
20210917104018 42 0.0 0.0 0.00 0.00 0.00 82 1023.9
20210917103015 42 0.0 0.0 0.00 0.00 0.00 81 1023.9
20210917102015 43 0.0 0.0 0.00 0.00 0.00 79 1023.7
20210917101016 44 0.0 0.0 0.00 0.00 0.00 77 1024.2
20210917100016 44 0.0 0.0 0.00 0.00 0.00 78 1024.2
20210917095015 45 0.0 0.0 0.00 0.00 0.00 75 1024.0
20210917094015 45 0.0 0.0 0.00 0.00 0.00 73 1024.0
20210917093015 46 0.0 0.0 0.00 0.00 0.00 71 1024.3
20210917092015 47 0.0 1.0 0.00 0.00 0.00 67 1024.0
20210917091015 48 0.0 1.0 0.00 0.00 0.00 66 1024.4
20210917090016 48 315 1.0 7.0 0.00 0.00 0.00 65 1024.2
20210917085015 48 0.0 2.0 0.00 0.00 0.00 61 1024.2
20210917084015 48 0.0 0.0 0.00 0.00 0.00 60 1024.0
20210917083015 49 0.0 0.0 0.00 0.00 0.00 59 1024.0
20210917082015 50 0.0 0.0 0.00 0.00 0.00 58 1024.2
20210917081015 51 0.0 1.0 0.00 0.00 0.00 56 1024.4
20210917080015 52 0.0 1.0 0.00 0.00 0.00 54 1024.9
20210917075015 53 135 1.0 4.0 0.00 0.00 0.00 49 1024.8
20210917074015 55 135 1.0 6.0 0.00 0.00 0.00 38 1024.6
20210917073015 55 113 1.0 4.0 0.00 0.00 0.00 33 1024.2
20210917072015 54 158 1.0 3.0 0.00 0.00 0.00 33 1023.4
20210917071015 53 0.0 0.0 0.00 0.00 0.00 35 1022.1
20210917070015 53 0.0 0.0 0.00 0.00 0.00 35 1021.8
20210917065015 53 0.0 0.0 0.00 0.00 0.00 33 1021.5
20210917064015 53 0.0 1.0 0.00 0.00 0.00 33 1021.3
20210917063015 54 0.0 0.0 0.00 0.00 0.00 33 1021.7
20210917062015 54 0.0 0.0 0.00 0.00 0.00 33 1020.9
20210917061017 54 0.0 0.0 0.00 0.00 0.00 34 1020.7
20210917060017 54 0.0 0.0 0.00 0.00 0.00 32 1021.1
20210917055017 55 0.0 0.0 0.00 0.00 0.00 31 1021.1
20210917054017 55 0.0 0.0 0.00 0.00 0.00 31 1021.0
20210917053017 56 0.0 0.0 0.00 0.00 0.00 31 1021.5
20210917052018 57 0.0 0.0 0.00 0.00 0.00 29 1021.4
20210917051019 58 0.0 0.0 0.00 0.00 0.00 28 1021.7
20210917050017 59 0.0 0.0 0.00 0.00 0.00 27 1021.7
20210917045017 60 0.0 1.0 0.00 0.00 0.00 25 1022.2
20210917044017 60 0.0 1.0 0.00 0.00 0.00 25 1021.7
20210917043017 55 0.0 1.0 0.00 0.00 0.00 29 1020.5
20210917042017 55 0.0 0.0 0.00 0.00 0.00 29 1020.5
20210917041017 55 0.0 0.0 0.00 0.00 0.00 29 1020.4
20210917040017 55 0.0 0.0 0.00 0.00 0.00 29 1020.4
20210917035017 56 0.0 0.0 0.00 0.00 0.00 29 1020.3
20210917034017 56 0.0 0.0 0.00 0.00 0.00 29 1020.8
20210917033017 56 0.0 0.0 0.00 0.00 0.00 29 1020.7
20210917032017 56 0.0 0.0 0.00 0.00 0.00 28 1020.6
20210917031017 57 0.0 0.0 0.00 0.00 0.00 27 1020.4
20210917030017 58 0.0 0.0 0.00 0.00 0.00 26 1020.7
20210917025017 59 0.0 0.0 0.00 0.00 0.00 26 1020.7
20210917024017 60 0.0 0.0 0.00 0.00 0.00 24 1020.5
20210917023017 60 0.0 0.0 0.00 0.00 0.00 24 1020.9
20210917022016 61 0.0 0.0 0.00 0.00 0.00 23 1020.6
20210917021016 61 0.0 0.0 0.00 0.00 0.00 24 1020.5
20210917020016 62 0.0 0.0 0.00 0.00 0.00 22 1020.8
20210917015018 63 0.0 0.0 0.00 0.00 0.00 22 1020.6
20210917014017 63 0.0 0.0 0.00 0.00 0.00 21 1020.4
20210917013017 64 0.0 1.0 0.00 0.00 0.00 20 1020.7
20210917012016 66 0.0 0.0 0.00 0.00 0.00 20 1021.2
20210917011017 68 0.0 0.0 0.00 0.00 0.00 19 1021.5
20210917010018 69 0.0 1.0 0.00 0.00 0.00 17 1021.2
20210917005016 70 0.0 0.0 0.00 0.01 0.00 16 1021.6
20210917004017 70 0.0 1.0 0.00 0.01 0.00 16 1021.5
20210917003017 71 0.0 1.0 0.00 0.01 0.00 16 1021.4
20210917002017 71 0.0 2.0 0.00 0.01 0.00 16 1021.3
20210917001017 72 0.0 2.0 0.00 0.01 0.00 18 1021.6
20210917000017 73 0.0 0.0 0.00 0.01 0.00 18 1021.5
20210916235016 74 0.0 1.0 0.00 0.01 0.00 16 1021.8
20210916234017 74 0.0 1.0 0.00 0.01 0.00 17 1021.6
20210916233017 75 315 1.0 3.0 0.00 0.01 0.00 16 1021.4
20210916232016 75 315 1.0 5.0 0.00 0.01 0.00 16 1021.3
20210916231016 76 45 1.0 4.0 0.00 0.01 0.00 16 1021.9